Latest Weather Observations for Essendon Airport

IDV60901

Issued at 8:41 pm EDT Thursday 2 April 2015 (issued every 10 minutes, with the page automatically refreshed every 10 minutes)

About weather observations | Map of Melbourne area stations | Latest observations for Melbourne area | Other Formats
Station Details ID: 086038 Name: ESSENDON AIRPORT Lat: -37.73 Lon: 144.91 Height: 78.4 m
Data from the previous 72 hours. | See also: Recent months at Essendon Airport
Date/Time
EDT
Tmp

°C
App
Tmp
°C
Dew
Point
°C
Rel
Hum
%
Delta-T

°C
Wind Press
QNH
hPa
Press
MSL
hPa
Rain
since
9 am
mm
Dir
 
Spd
km/h
Gust
km/h
Spd
kts
Gust
kts
02/08:30pm 13.1 7.6 4.0 54 4.1 SSE 22 30 12 16 1025.0 1025.0 0.0
02/08:00pm 13.4 7.2 4.3 54 4.2 SSE 26 35 14 19 1024.7 1024.7 0.0
02/07:30pm 13.6 8.8 4.7 55 4.1 S 19 28 10 15 1024.6 1024.6 0.0
02/07:00pm 13.8 7.7 4.7 54 4.2 S 26 37 14 20 1024.4 1024.4 0.0
02/06:30pm 14.0 7.4 4.3 52 4.4 S 28 37 15 20 1024.1 1024.1 0.0
02/06:00pm 14.8 7.7 3.6 47 5.1 S 30 39 16 21 1023.8 1023.8 0.0
02/05:30pm 14.9 6.9 3.7 47 5.1 S 35 48 19 26 1023.6 1023.6 0.0
02/05:00pm 15.1 7.1 3.6 46 5.2 S 35 48 19 26 1023.5 1023.5 0.0
02/04:51pm 15.9 8.7 5.2 49 5.1 S 32 50 17 27 1023.5 1023.5 0.0
02/04:30pm 16.0 8.3 3.4 43 5.8 S 33 46 18 25 1023.5 1023.5 0.0
02/04:00pm 16.0 8.5 6.2 52 4.8 S 35 59 19 32 1023.5 1023.5 0.0
02/03:51pm 16.0 8.2 4.7 47 5.3 S 35 59 19 32 1023.5 1023.5 0.0
02/03:30pm 16.1 7.4 3.9 44 5.6 S 39 52 21 28 1023.5 1023.5 0.0
02/03:16pm 15.6 7.2 5.8 52 4.7 S 39 61 21 33 1023.5 1023.5 0.0
02/03:00pm 15.3 7.3 5.5 52 4.7 S 37 54 20 29 1023.5 1023.5 0.0
02/02:30pm 16.2 7.9 4.3 45 5.6 S 37 52 20 28 1023.7 1023.7 0.0
02/02:24pm 15.7 8.4 5.3 50 4.9 S 33 52 18 28 1023.7 1023.7 0.0
02/02:00pm 15.8 8.4 5.1 49 5.1 SSW 33 46 18 25 1024.0 1024.0 0.0
02/01:30pm 16.8 8.8 5.7 48 5.4 S 37 52 20 28 1024.0 1024.0 0.0
02/01:00pm 16.2 8.8 6.6 53 4.7 S 35 46 19 25 1024.1 1024.1 0.0
02/12:42pm 15.0 7.4 6.0 55 4.3 S 35 54 19 29 1024.1 1024.1 0.0
02/12:30pm 15.2 8.2 6.7 57 4.1 S 33 50 18 27 1024.0 1024.0 0.0
02/12:00pm 15.9 8.5 6.6 54 4.5 S 35 46 19 25 1023.8 1023.8 0.0
02/11:30am 16.4 8.9 6.5 52 4.8 SSW 35 50 19 27 1023.8 1023.8 0.0
02/11:00am 15.8 7.9 6.3 53 4.6 S 37 48 20 26 1023.6 1023.6 0.0
02/10:30am 15.1 10.0 7.6 61 3.7 SW 24 37 13 20 1023.4 1023.4 0.0
02/10:00am 14.7 10.1 8.0 64 3.3 SW 22 30 12 16 1023.1 1023.1 0.0
02/09:30am 13.3 8.3 8.0 70 2.6 SW 24 30 13 16 1022.9 1022.9 0.0
02/09:00am 12.1 7.7 7.4 73 2.3 WSW 20 28 11 15 1022.6 1022.6 0.4
02/08:30am 11.3 6.4 7.0 75 2.1 WSW 22 28 12 15 1022.0 1021.9 0.4
02/08:00am 11.2 6.0 7.1 76 2.0 WSW 24 30 13 16 1021.5 1021.4 0.4
02/07:30am 11.0 5.9 7.7 80 1.6 WSW 24 30 13 16 1021.0 1020.9 0.4
02/07:00am 11.4 7.3 8.6 83 1.4 WSW 20 26 11 14 1020.5 1020.4 0.4
02/06:30am 11.7 7.7 9.1 84 1.3 W 20 28 11 15 1020.0 1019.9 0.4
02/05:30am 13.3 8.6 10.5 83 1.5 WSW 26 33 14 18 1019.0 1018.9 0.4
02/05:00am 13.5 8.9 11.2 86 1.2 W 26 32 14 17 1018.5 1018.4 0.4
02/04:30am 13.3 9.2 11.5 89 1.0 WSW 24 33 13 18 1018.2 1018.1 0.4
02/04:00am 14.3 8.9 10.9 80 1.8 WSW 30 39 16 21 1017.9 1017.8 0.0
02/03:30am 14.8 8.2 11.2 79 1.9 WSW 37 44 20 24 1017.6 1017.5 0.0
02/03:00am 15.7 9.9 11.5 76 2.3 WSW 33 43 18 23 1017.4 1017.3 0.0
02/02:38am 16.0 9.5 11.8 76 2.3 WSW 37 48 20 26 1017.2 1017.1 0.0
02/02:30am 16.3 9.8 11.7 74 2.5 WSW 37 48 20 26 1017.1 1017.0 0.0
02/02:15am 16.5 8.8 12.1 75 2.4 WSW 44 56 24 30 1016.7 1016.6 0.0
02/02:00am 17.6 10.8 13.1 75 2.5 WSW 41 56 22 30 1016.0 1015.9 0.0
02/01:54am 18.2 14.0 13.5 74 2.7 WSW 28 56 15 30 1015.8 1015.7 0.0
02/01:30am 19.2 14.8 14.2 73 2.9 W 30 43 16 23 1015.5 1015.4 0.0
02/01:00am 19.2 14.5 14.2 73 2.9 WSW 32 50 17 27 1015.0 1015.0 0.0
02/12:53am 19.3 14.5 14.1 72 3.0 WSW 32 50 17 27 1015.0 1015.0 0.0
02/12:30am 19.6 13.8 14.0 70 3.2 SW 37 52 20 28 1014.5 1014.5 0.0
02/12:26am 20.0 14.6 13.9 68 3.5 WSW 35 52 19 28 1014.3 1014.3 0.0
 
Date/Time
EDT
Tmp

°C
App
Tmp
°C
Dew
Point
°C
Rel
Hum
%
Delta-T

°C
Wind Press
QNH
hPa
Press
MSL
hPa
Rain
since
9 am
mm
Dir
 
Spd
km/h
Gust
km/h
Spd
kts
Gust
kts
01/11:30pm 21.3 16.2 11.9 55 5.3 WSW 30 41 16 22 1013.9 1013.9 0.0
01/11:03pm 22.4 16.9 10.5 47 6.6 WSW 30 54 16 29 1013.5 1013.5 0.0
01/11:00pm 23.3 18.5 9.0 40 7.7 W 24 35 13 19 1013.5 1013.5 0.0
01/10:30pm 25.2 21.7 7.3 32 9.5 N 15 20 8 11 1012.6 1012.6 0.0
01/10:00pm 25.4 21.6 7.5 32 9.5 N 17 20 9 11 1012.5 1012.5 0.0
01/09:30pm 25.9 22.1 7.5 31 9.8 N 17 24 9 13 1012.5 1012.5 0.0
01/09:00pm 26.0 22.5 7.1 30 10.0 NNW 15 17 8 9 1012.5 1012.5 0.0
01/08:30pm 26.9 22.6 6.9 28 10.6 NNW 19 26 10 14 1012.2 1012.2 0.0
01/08:00pm 26.9 23.1 7.4 29 10.4 NNW 17 22 9 12 1012.1 1012.1 0.0
01/07:30pm 27.1 22.9 7.5 29 10.5 NNW 19 26 10 14 1011.9 1011.9 0.0
01/07:00pm 27.3 23.5 7.7 29 10.6 N 17 24 9 13 1011.9 1011.9 0.0
01/06:30pm 27.9 23.5 7.2 27 11.1 NNW 20 32 11 17 1012.0 1012.0 0.0
01/06:00pm 28.6 23.8 7.2 26 11.5 NNW 22 32 12 17 1012.3 1012.3 0.0
01/05:30pm 28.5 23.5 8.2 28 11.1 NNW 24 33 13 18 1012.2 1012.2 0.0
01/05:00pm 28.5 22.3 7.7 27 11.3 NNW 30 41 16 22 1012.4 1012.4 0.0
01/04:30pm 28.7 23.0 8.4 28 11.1 NNW 28 44 15 24 1012.6 1012.6 0.0
01/04:02pm 28.7 22.2 8.9 29 11.0 N 33 54 18 29 1012.4 1012.4 0.0
01/04:00pm 28.7 22.5 9.4 30 10.8 N 32 46 17 25 1012.5 1012.5 0.0
01/03:30pm 28.2 23.7 11.3 35 9.7 N 26 35 14 19 1013.2 1013.2 0.0
01/03:00pm 28.2 23.0 10.4 33 10.1 N 28 37 15 20 1013.7 1013.7 0.0
01/02:30pm 28.3 22.2 10.5 33 10.1 N 33 48 18 26 1014.1 1014.1 0.0
01/02:00pm 28.5 22.6 11.1 34 10.0 N 33 46 18 25 1014.6 1014.6 0.0
01/01:30pm 27.2 20.9 11.2 36 9.1 N 35 46 19 25 1015.3 1015.2 0.0
01/01:02pm 27.7 21.8 11.3 36 9.4 N 33 52 18 28 1015.8 1015.7 0.0
01/01:00pm 27.5 21.8 11.1 36 9.3 N 32 46 17 25 1015.7 1015.6 0.0
01/12:30pm 26.9 21.2 11.0 37 9.0 N 32 50 17 27 1016.4 1016.3 0.0
01/12:18pm 27.3 21.3 10.9 36 9.3 N 33 52 18 28 1016.4 1016.3 0.0
01/12:00pm 26.0 20.7 11.4 40 8.3 N 30 43 16 23 1016.9 1016.8 0.0
01/11:30am 26.3 20.7 11.6 40 8.4 N 32 44 17 24 1017.4 1017.3 0.0
01/11:00am 23.3 18.0 11.4 47 6.7 N 30 43 16 23 1017.9 1017.8 0.0
01/10:30am 22.5 17.2 11.3 49 6.3 N 30 44 16 24 1018.3 1018.1 0.0
01/10:00am 21.7 16.7 11.1 51 5.9 N 28 43 15 23 1018.7 1018.5 0.0
01/09:30am 20.9 15.9 11.0 53 5.5 N 28 44 15 24 1019.1 1018.9 0.0
01/09:00am 19.9 15.6 10.6 55 5.0 N 24 32 13 17 1019.3 1019.1 -
01/08:30am 19.5 16.0 10.2 55 5.0 N 19 26 10 14 1019.1 1018.9 -
01/08:00am 19.9 16.4 10.3 54 5.2 N 19 32 10 17 1018.9 1018.7 -
01/07:30am 18.1 15.3 8.7 54 4.9 NNE 13 15 7 8 1018.9 1018.7 -
01/07:00am 19.1 15.9 8.4 50 5.5 NNE 15 22 8 12 1019.0 1018.8 -
01/06:30am 18.9 14.9 8.3 50 5.5 N 19 28 10 15 1018.9 1018.7 -
01/06:00am 18.4 14.3 8.7 53 5.0 N 20 26 11 14 1019.0 1018.8 -
01/05:30am 17.7 14.2 8.8 56 4.6 NNW 17 20 9 11 1019.0 1018.8 -
01/05:00am 17.4 14.4 9.1 58 4.3 N 15 17 8 9 1019.0 1018.8 -
01/04:30am 18.1 14.3 8.9 55 4.8 N 19 22 10 12 1019.0 1018.8 -
01/04:00am 17.3 14.0 9.7 61 4.0 N 17 22 9 12 1019.4 1019.2 -
01/03:30am 15.2 13.6 10.2 72 2.6 N 9 13 5 7 1019.7 1019.5 -
01/03:00am 13.6 12.8 9.8 78 2.0 NNE 4 7 2 4 1020.2 1020.0 0.0
01/02:30am 13.6 11.7 10.4 81 1.7 NE 11 11 6 6 1020.5 1020.3 -
01/02:00am 14.1 12.5 11.4 84 1.4 NE 11 13 6 7 1020.9 1020.7 -
01/01:30am 13.7 12.7 10.9 83 1.5 NNE 7 9 4 5 1021.2 1021.0 -
01/01:00am 14.3 13.6 11.3 82 1.6 N 6 7 3 4 1021.4 1021.2 -
01/12:30am 14.8 13.3 11.8 82 1.6 N 11 13 6 7 1021.6 1021.4 -
01/12:00am 14.5 13.3 11.6 83 1.6 N 9 13 5 7 1021.9 1021.7 -
 
Date/Time
EDT
Tmp

°C
App
Tmp
°C
Dew
Point
°C
Rel
Hum
%
Delta-T

°C
Wind Press
QNH
hPa
Press
MSL
hPa
Rain
since
9 am
mm
Dir
 
Spd
km/h
Gust
km/h
Spd
kts
Gust
kts
31/11:30pm 15.6 14.7 12.5 82 1.7 NW 9 11 5 6 1022.2 1022.0 -
31/11:00pm 16.2 15.4 12.9 81 1.8 NNW 9 11 5 6 1022.1 1021.9 -
31/10:30pm 16.5 15.7 13.0 80 2.0 NW 9 9 5 5 1022.2 1022.0 -
31/10:00pm 16.8 16.4 13.1 79 2.1 W 7 9 4 5 1022.5 1022.3 -
31/09:30pm 18.1 16.8 13.8 76 2.5 W 13 17 7 9 1022.6 1022.4 -
31/09:00pm 18.5 16.9 13.8 74 2.7 WSW 15 19 8 10 1022.4 1022.2 0.0
31/08:30pm 18.5 16.9 12.9 70 3.2 W 13 15 7 8 1022.0 1021.8 -
31/08:00pm 19.2 17.7 13.2 68 3.4 W 13 15 7 8 1021.8 1021.6 -
31/07:30pm 20.2 18.6 12.9 63 4.1 SW 13 17 7 9 1021.4 1021.2 -
31/07:00pm 21.1 18.6 10.9 52 5.6 SSW 15 22 8 12 1021.3 1021.1 -
31/06:30pm 22.3 18.3 10.5 47 6.5 S 22 26 12 14 1021.3 1021.1 -
31/06:00pm 23.1 19.8 11.5 48 6.5 S 20 26 11 14 1021.1 1020.9 -
31/05:30pm 23.5 20.2 11.5 47 6.8 S 20 26 11 14 1021.1 1020.9 -
31/05:00pm 24.2 20.4 11.2 44 7.3 S 22 28 12 15 1021.1 1020.9 -
31/04:30pm 24.6 21.2 11.2 43 7.6 S 20 26 11 14 1021.3 1021.1 -
31/04:00pm 25.1 21.5 12.0 44 7.5 S 22 28 12 15 1021.7 1021.5 -
31/03:30pm 25.0 21.8 11.9 44 7.5 S 20 26 11 14 1021.9 1021.7 -
31/03:00pm 25.5 22.3 12.0 43 7.7 S 20 24 11 13 1022.1 1021.9 -
31/02:30pm 25.6 23.5 9.8 37 8.7 SE 11 15 6 8 1022.5 1022.3 -
31/02:00pm 24.9 23.1 9.6 38 8.4 NE 9 20 5 11 1023.2 1023.0 -
31/01:30pm 24.1 23.4 11.4 45 7.2 NNE 6 63 3 34 1023.7 - 0.0
31/01:21pm 24.1 19.2 11.4 45 7.2 ESE 28 48 15 26 1023.9 - 0.0
31/01:00pm 23.4 22.8 11.8 48 6.5 ENE 6 15 3 8 1024.4 1024.3 0.0
31/12:30pm 21.6 19.9 11.3 52 5.7 E 11 19 6 10 1024.9 1024.8 0.0
31/12:00pm 20.8 19.2 11.7 56 5.1 E 11 17 6 9 1025.6 1025.5 0.0
31/11:30am 19.6 18.4 11.6 60 4.4 E 9 13 5 7 1026.1 1026.0 0.0
31/11:00am 18.8 18.2 11.6 63 3.9 SE 6 11 3 6 1026.8 1026.7 0.0
31/10:30am 17.6 16.9 12.1 70 3.0 S 7 9 4 5 1027.1 1027.0 0.0
31/10:00am 17.0 16.5 11.9 72 2.8 E 6 9 3 5 1027.0 1026.9 0.0
31/09:30am 16.1 16.0 12.1 77 2.2 NNE 4 6 2 3 1026.8 1026.7 0.0
31/09:00am 14.1 13.4 11.3 83 1.5 NNW 6 7 3 4 1026.7 1026.6 0.0
31/08:30am 11.9 10.8 10.5 91 0.7 N 7 9 4 5 1026.5 1026.4 0.0
31/08:00am 10.0 8.4 8.9 93 0.5 N 7 7 4 4 1026.2 1026.1 0.0
31/07:30am 9.3 7.5 8.1 92 0.6 NW 7 9 4 5 1026.1 1026.0 0.0
31/07:00am 9.7 7.7 8.6 93 0.5 N 9 11 5 6 1025.7 1025.6 0.0
31/06:30am 9.6 7.5 8.2 91 0.7 NW 9 11 5 6 1025.5 1025.4 0.0
31/06:00am 10.3 8.4 9.1 92 0.6 NW 9 13 5 7 1025.3 1025.2 0.0
31/05:30am 11.0 8.9 9.8 92 0.6 WNW 11 13 6 7 1025.3 1025.2 0.0
31/05:00am 10.5 8.3 9.3 92 0.6 NW 11 13 6 7 1025.1 1025.0 0.0
31/04:30am 10.4 8.5 9.0 91 0.7 NW 9 13 5 7 1025.3 1025.2 0.0
31/04:00am 11.0 9.2 9.4 90 0.8 NW 9 11 5 6 1025.4 1025.3 0.0
31/03:30am 11.6 9.9 10.0 90 0.8 WNW 9 11 5 6 1025.6 1025.5 0.0
31/03:00am 11.6 9.5 9.9 89 0.9 WNW 11 13 6 7 1025.7 1025.6 0.0
31/02:30am 11.8 9.7 9.9 88 1.0 WNW 11 11 6 6 1025.8 1025.7 0.0
31/02:00am 12.0 9.9 9.9 87 1.1 WNW 11 11 6 6 1025.9 1025.8 0.0
31/01:30am 13.2 11.3 10.6 84 1.4 W 11 11 6 6 1026.0 1025.9 0.0
31/01:00am 13.4 11.8 10.2 81 1.7 SW 9 9 5 5 1026.1 1026.0 0.0
31/12:30am 14.0 12.9 10.6 80 1.8 SSW 7 9 4 5 1026.1 1026.0 0.0
31/12:00am 13.9 12.6 10.1 78 2.0 S 7 9 4 5 1026.3 1026.2 0.0
 
Date/Time
EDT
Tmp

°C
App
Tmp
°C
Dew
Point
°C
Rel
Hum
%
Delta-T

°C
Wind Press
QNH
hPa
Press
MSL
hPa
Rain
since
9 am
mm
Dir
 
Spd
km/h
Gust
km/h
Spd
kts
Gust
kts
30/11:30pm 14.9 14.3 10.5 75 2.3 S 4 9 2 5 1026.4 1026.3 0.0
30/11:00pm 15.8 14.7 10.8 72 2.7 S 7 11 4 6 1026.5 1026.4 0.0
30/10:30pm 15.8 14.7 10.8 72 2.7 SSE 7 9 4 5 1026.4 1026.3 0.0
30/10:00pm 16.1 15.0 10.6 70 2.9 S 7 11 4 6 1026.3 1026.2 0.0
30/09:30pm 16.6 14.6 11.5 72 2.8 SSE 13 17 7 9 1026.2 1026.1 0.0
30/09:00pm 16.2 14.9 12.6 79 2.0 SW 11 11 6 6 1026.0 1025.9 0.0

Latest Capital City Observations: Canberra | Sydney | Melbourne | Brisbane | Adelaide | Perth | Hobart | Darwin

Other Formats:

Comma delimited format used in spreadsheet applications
http://www.bom.gov.au/fwo/IDV60901/IDV60901.95866.axf

JavaScript Object Notation format (JSON) in row-major order
http://www.bom.gov.au/fwo/IDV60901/IDV60901.95866.json